Time;durP1;ratioP1;P1;durP2;ratioP2;P2;SDS_P1;SDS_P2;PMS_P1;PMS_P2;Temp;Humidity;BMP_temperature;BMP_pressure;BME280_temperature;BME280_humidity;BME280_pressure;Samples;Min_cycle;Max_cycle;Signal;HPM_P1;HPM_P2
2022/06/10 00:00:43;;;;;;;0.75;0.40;;;22.30;52.90;21.50;101642.00;;;;5050791;28;20119;-71
2022/06/10 00:03:29;;;;;;;1.77;0.65;;;22.30;53.00;21.40;101647.00;;;;5047662;28;20095;-71
2022/06/10 00:06:15;;;;;;;1.52;0.50;;;22.30;53.00;21.40;101656.00;;;;5050234;28;20060;-71
2022/06/10 00:09:02;;;;;;;0.70;0.52;;;22.20;52.90;21.40;101653.00;;;;5048392;28;20382;-71
2022/06/10 00:11:48;;;;;;;1.95;0.60;;;22.20;52.90;21.40;101651.00;;;;5050842;28;20036;-71
2022/06/10 00:14:34;;;;;;;1.45;0.55;;;22.20;52.90;21.40;101644.00;;;;5068046;28;20115;-71
2022/06/10 00:17:20;;;;;;;1.77;0.70;;;22.20;53.00;21.40;101646.00;;;;5061202;28;20041;-71
2022/06/10 00:20:07;;;;;;;1.08;0.60;;;22.20;52.90;21.40;101646.00;;;;5065288;28;20044;-71
2022/06/10 00:22:53;;;;;;;0.50;0.40;;;22.20;53.00;21.40;101654.00;;;;5059985;28;20051;-71
2022/06/10 00:25:39;;;;;;;1.30;0.70;;;22.20;53.30;21.40;101656.00;;;;5062531;28;20315;-71
2022/06/10 00:28:25;;;;;;;0.85;0.40;;;22.20;53.00;21.40;101655.00;;;;5051116;28;20049;-71
2022/06/10 00:31:13;;;;;;;0.93;0.50;;;22.20;52.90;21.40;101655.00;;;;5044213;28;20076;-71
2022/06/10 00:33:59;;;;;;;2.00;0.57;;;22.20;53.00;21.40;101652.00;;;;5063465;28;20617;-71
2022/06/10 00:36:45;;;;;;;1.58;0.77;;;22.20;53.00;21.40;101652.00;;;;5057687;28;20296;-71
2022/06/10 00:39:32;;;;;;;1.40;0.60;;;22.20;53.00;21.40;101646.00;;;;5053320;28;20135;-71
2022/06/10 00:42:18;;;;;;;1.92;0.60;;;22.20;52.90;21.40;101656.00;;;;5046471;28;20126;-71
2022/06/10 00:45:05;;;;;;;2.78;0.50;;;22.20;53.00;21.40;101653.00;;;;5063206;28;20406;-71
2022/06/10 00:47:51;;;;;;;1.10;0.47;;;22.20;53.00;21.40;101655.00;;;;5062706;28;20397;-71
2022/06/10 00:50:38;;;;;;;1.38;0.50;;;22.10;52.90;21.40;101657.00;;;;5059950;28;20338;-71
2022/06/10 00:53:29;;;;;;;2.75;0.80;;;22.10;52.90;21.30;101656.00;;;;5049829;28;20044;-71
2022/06/10 00:56:18;;;;;;;2.10;0.85;;;22.10;52.90;21.30;101652.00;;;;5047305;28;20407;-71
2022/06/10 00:59:23;;;;;;;1.73;0.65;;;22.10;52.90;21.30;101643.00;;;;5066695;28;20101;-71
2022/06/10 01:02:22;;;;;;;2.03;0.60;;;22.10;52.80;21.30;101654.00;;;;5046287;28;20036;-71
2022/06/10 01:05:18;;;;;;;1.52;0.60;;;22.10;52.90;21.30;101653.00;;;;5079291;28;20032;-71
2022/06/10 01:08:10;;;;;;;1.08;0.50;;;22.20;52.90;21.30;101656.00;;;;5045781;28;20041;-71
2022/06/10 01:11:21;;;;;;;1.05;0.57;;;22.10;52.80;21.30;101659.00;;;;5055270;28;20044;-71
2022/06/10 01:14:36;;;;;;;1.05;0.77;;;22.10;52.80;21.30;101654.00;;;;5043566;28;20052;-71
2022/06/10 01:17:44;;;;;;;1.00;0.50;;;22.10;52.80;21.30;101658.00;;;;5056525;28;20098;-71
2022/06/10 01:20:52;;;;;;;1.13;0.50;;;22.10;52.80;21.30;101653.00;;;;5060358;28;20448;-71
2022/06/10 01:24:16;;;;;;;1.60;0.68;;;22.10;52.80;21.20;101653.00;;;;5055228;28;20503;-71
2022/06/10 01:27:53;;;;;;;1.27;0.60;;;22.10;52.80;21.20;101661.00;;;;5073381;28;20090;-71
2022/06/10 01:31:15;;;;;;;1.20;0.50;;;22.00;52.70;21.20;101651.00;;;;5075718;28;20040;-71
2022/06/10 01:34:50;;;;;;;1.20;0.70;;;22.00;52.70;21.20;101650.00;;;;5050374;28;20037;-71
2022/06/10 01:37:49;;;;;;;0.90;0.40;;;22.10;52.80;21.20;101651.00;;;;5050260;28;20047;-71
2022/06/10 01:40:39;;;;;;;1.83;0.55;;;22.00;52.70;21.20;101648.00;;;;5045983;28;20035;-71
2022/06/10 01:43:46;;;;;;;0.75;0.30;;;22.00;52.70;21.20;101646.00;;;;5047482;28;20033;-71
2022/06/10 01:46:35;;;;;;;1.20;0.40;;;22.00;52.70;21.20;101647.00;;;;5061621;28;20058;-71
2022/06/10 01:49:26;;;;;;;0.35;0.30;;;22.00;52.70;21.20;101643.00;;;;5040052;28;20537;-71
2022/06/10 01:52:19;;;;;;;0.65;0.35;;;22.00;52.70;21.20;101645.00;;;;5044345;28;20371;-71
2022/06/10 01:55:14;;;;;;;2.05;0.50;;;22.00;52.70;21.20;101647.00;;;;5050119;28;20039;-71
2022/06/10 01:58:10;;;;;;;0.90;0.50;;;22.00;52.70;21.20;101646.00;;;;5054966;28;20344;-71
2022/06/10 02:01:06;;;;;;;1.10;0.47;;;22.00;52.70;21.20;101659.00;;;;5039009;28;20043;-71
2022/06/10 02:04:04;;;;;;;2.95;0.68;;;22.00;52.70;21.20;101653.00;;;;5064541;28;20055;-71
2022/06/10 02:07:17;;;;;;;3.20;0.60;;;22.00;52.70;21.20;101654.00;;;;5041065;28;20092;-71
2022/06/10 02:10:31;;;;;;;0.98;0.50;;;22.00;52.70;21.20;101656.00;;;;5061258;28;20090;-71
2022/06/10 02:13:25;;;;;;;2.08;0.50;;;22.00;52.70;21.20;101669.00;;;;5051018;28;20456;-71
2022/06/10 02:16:15;;;;;;;1.67;0.70;;;21.90;52.70;21.10;101657.00;;;;5037787;28;20035;-71
2022/06/10 02:19:18;;;;;;;1.02;0.50;;;21.90;52.70;21.10;101657.00;;;;5028874;28;20079;-71
2022/06/10 02:22:19;;;;;;;1.85;0.50;;;21.90;52.60;21.10;101660.00;;;;5027806;28;20032;-71
2022/06/10 02:25:14;;;;;;;0.32;0.30;;;21.90;52.60;21.10;101661.00;;;;5040754;28;20550;-71
2022/06/10 02:28:20;;;;;;;3.58;0.73;;;21.90;52.70;21.10;101656.00;;;;5028886;28;20133;-71
2022/06/10 02:31:27;;;;;;;0.65;0.40;;;21.90;52.70;21.10;101661.00;;;;5038716;28;20032;-70
2022/06/10 02:34:13;;;;;;;0.50;0.40;;;21.90;52.60;21.10;101661.00;;;;5043964;28;20036;-71
2022/06/10 02:37:20;;;;;;;1.85;0.80;;;21.90;52.70;21.10;101661.00;;;;5045196;28;20117;-71
2022/06/10 02:40:31;;;;;;;0.95;0.50;;;21.90;52.60;21.10;101661.00;;;;5027545;28;20044;-71
2022/06/10 02:43:23;;;;;;;1.05;0.65;;;21.90;52.60;21.10;101660.00;;;;5040563;28;20048;-71
2022/06/10 02:46:13;;;;;;;0.95;0.60;;;21.90;52.60;21.10;101658.00;;;;5031730;28;20093;-71
2022/06/10 02:49:11;;;;;;;2.15;0.60;;;21.90;52.60;21.10;101655.00;;;;5038239;28;20457;-71
2022/06/10 02:51:57;;;;;;;0.38;0.38;;;21.90;52.60;21.10;101664.00;;;;5029892;28;21248;-71
2022/06/10 02:54:43;;;;;;;0.93;0.50;;;21.90;52.60;21.10;101658.00;;;;5056811;28;20040;-71
2022/06/10 03:01:20;;;;;;;0.73;0.52;;;21.90;52.60;21.10;101661.00;;;;5044745;28;20219;-71
2022/06/10 03:04:17;;;;;;;1.95;0.70;;;21.90;52.50;21.10;101661.00;;;;5048631;28;20068;-71
2022/06/10 03:07:46;;;;;;;1.05;0.40;;;21.90;52.60;21.10;101659.00;;;;5026998;28;20041;-71
2022/06/10 03:10:50;;;;;;;0.77;0.40;;;21.90;52.60;21.10;101656.00;;;;5028017;28;20033;-71
2022/06/10 03:14:15;;;;;;;0.57;0.45;;;21.90;52.60;21.00;101670.00;;;;5043962;28;20479;-71
2022/06/10 03:17:44;;;;;;;1.45;0.60;;;21.90;52.60;21.00;101671.00;;;;5021039;28;20048;-71
2022/06/10 03:20:56;;;;;;;0.80;0.60;;;21.80;52.60;21.00;101674.00;;;;5022745;28;20041;-71
2022/06/10 03:24:11;;;;;;;1.67;0.57;;;21.90;52.60;21.00;101676.00;;;;5060060;28;20037;-71
2022/06/10 03:27:09;;;;;;;1.58;0.50;;;21.80;52.50;21.00;101676.00;;;;5026157;28;20056;-70
2022/06/10 03:30:07;;;;;;;1.05;0.40;;;21.80;52.60;21.00;101673.00;;;;5055338;28;20045;-71
2022/06/10 03:33:28;;;;;;;1.10;0.60;;;21.80;52.60;21.00;101681.00;;;;5047630;28;20330;-71
2022/06/10 03:36:23;;;;;;;1.75;0.70;;;21.80;52.70;21.00;101673.00;;;;5043641;28;20037;-71
2022/06/10 03:39:09;;;;;;;1.35;0.60;;;21.80;52.60;21.00;101673.00;;;;5045687;28;20093;-71
2022/06/10 03:42:05;;;;;;;4.28;0.63;;;21.80;52.70;21.00;101680.00;;;;5040738;28;20120;-71
2022/06/10 03:44:54;;;;;;;0.55;0.40;;;21.80;52.60;21.00;101667.00;;;;5045794;28;20410;-71
2022/06/10 03:47:41;;;;;;;2.88;0.70;;;21.80;52.60;21.00;101677.00;;;;5046444;28;20045;-71
2022/06/10 03:50:30;;;;;;;0.77;0.65;;;21.80;52.60;21.00;101678.00;;;;5059568;28;20037;-71
2022/06/10 03:53:20;;;;;;;2.58;0.50;;;21.80;52.60;21.00;101673.00;;;;5033253;28;20033;-71
2022/06/10 03:56:06;;;;;;;2.20;0.73;;;21.80;52.60;21.00;101682.00;;;;5044536;28;20045;-71
2022/06/10 03:58:53;;;;;;;1.55;0.57;;;21.80;52.50;21.00;101682.00;;;;5051391;28;20118;-71
2022/06/10 04:01:39;;;;;;;1.48;0.70;;;21.80;52.50;21.00;101682.00;;;;5051600;28;20103;-71
2022/06/10 04:04:25;;;;;;;1.58;0.88;;;21.80;52.50;21.00;101689.00;;;;5049921;28;20466;-71
2022/06/10 04:07:13;;;;;;;1.65;0.77;;;21.80;52.40;21.00;101690.00;;;;5043670;28;20099;-71
2022/06/10 04:09:59;;;;;;;0.82;0.70;;;21.80;52.40;21.00;101690.00;;;;5041876;28;20073;-71
2022/06/10 04:12:45;;;;;;;0.82;0.50;;;21.80;52.40;21.00;101698.00;;;;5041382;28;20063;-71
2022/06/10 04:15:32;;;;;;;1.55;0.63;;;21.80;52.50;21.00;101696.00;;;;5050929;28;20079;-71
2022/06/10 04:18:18;;;;;;;1.83;0.63;;;21.80;52.40;21.00;101702.00;;;;5033913;28;20044;-71
2022/06/10 04:21:05;;;;;;;1.42;0.82;;;21.80;52.50;21.00;101703.00;;;;5043360;28;20098;-71
2022/06/10 04:23:51;;;;;;;1.40;0.80;;;21.80;52.40;21.00;101700.00;;;;5051216;28;20041;-71
2022/06/10 04:26:37;;;;;;;0.77;0.70;;;21.80;52.50;21.00;101706.00;;;;5043820;28;20034;-71
2022/06/10 04:29:23;;;;;;;1.55;0.73;;;21.80;52.50;21.00;101703.00;;;;5045193;28;20044;-71
2022/06/10 04:32:09;;;;;;;1.33;0.50;;;21.80;52.50;21.00;101710.00;;;;5039161;28;20119;-71
2022/06/10 04:34:55;;;;;;;2.00;0.90;;;21.80;52.50;21.00;101704.00;;;;5046895;28;20051;-71
2022/06/10 04:37:44;;;;;;;2.95;0.70;;;21.80;52.40;21.00;101703.00;;;;5042843;28;20115;-71
2022/06/10 04:40:32;;;;;;;1.17;0.90;;;21.80;52.50;21.00;101704.00;;;;5052355;28;20041;-71
2022/06/10 04:43:18;;;;;;;3.20;1.00;;;21.80;53.20;21.00;101701.00;;;;5042237;28;20048;-71
2022/06/10 04:46:05;;;;;;;1.88;0.82;;;21.80;52.50;21.00;101696.00;;;;5056187;28;20063;-71
2022/06/10 04:48:51;;;;;;;0.75;0.75;;;21.90;52.50;21.00;101696.00;;;;5049290;28;20041;-71
2022/06/10 04:51:37;;;;;;;1.05;0.75;;;21.80;52.50;21.00;101702.00;;;;5038502;28;20044;-71
2022/06/10 04:54:24;;;;;;;1.65;1.02;;;21.90;52.60;21.00;101701.00;;;;5047577;28;20043;-71
2022/06/10 04:57:10;;;;;;;2.72;0.98;;;21.90;52.60;21.00;101703.00;;;;5036146;28;20250;-71
2022/06/10 04:59:56;;;;;;;1.40;0.90;;;21.90;52.60;21.00;101701.00;;;;5048132;28;20037;-71
2022/06/10 05:02:42;;;;;;;1.48;0.70;;;21.80;52.60;21.00;101704.00;;;;5031125;28;20044;-71
2022/06/10 05:05:29;;;;;;;1.83;0.98;;;21.80;52.60;21.00;101705.00;;;;5060164;28;20071;-71
2022/06/10 05:08:17;;;;;;;1.87;1.27;;;21.80;52.60;21.00;101708.00;;;;5054435;28;20073;-71
2022/06/10 05:11:03;;;;;;;1.08;1.00;;;21.80;52.50;21.00;101706.00;;;;5052416;28;20033;-71
2022/06/10 05:13:49;;;;;;;1.42;1.05;;;21.80;52.60;21.00;101705.00;;;;5057455;28;20095;-71
2022/06/10 05:16:35;;;;;;;1.55;1.00;;;21.90;52.80;21.00;101714.00;;;;5038465;28;20377;-71
2022/06/10 05:19:21;;;;;;;1.85;1.30;;;21.80;52.70;21.00;101714.00;;;;5045709;28;20040;-71
2022/06/10 05:22:07;;;;;;;2.13;1.23;;;21.80;52.70;21.00;101716.00;;;;5039726;28;20061;-71
2022/06/10 05:24:53;;;;;;;3.90;1.55;;;21.90;52.80;21.00;101717.00;;;;5057600;28;20045;-71
2022/06/10 05:27:40;;;;;;;3.00;1.52;;;21.90;52.90;21.00;101717.00;;;;5041425;28;20048;-71
2022/06/10 05:30:28;;;;;;;3.72;2.30;;;21.90;52.80;21.00;101721.00;;;;5057515;28;20490;-71
2022/06/10 05:33:14;;;;;;;4.15;1.80;;;21.90;52.70;21.00;101719.00;;;;5046705;28;20427;-71
2022/06/10 05:36:00;;;;;;;3.20;2.00;;;21.90;52.70;21.00;101720.00;;;;5019935;28;20036;-71
2022/06/10 05:38:46;;;;;;;3.05;2.42;;;21.90;52.80;21.00;101716.00;;;;5045333;28;20052;-71
2022/06/10 05:44:47;;;;;;;3.03;2.22;;;21.90;52.80;21.00;101714.00;;;;5045397;28;20106;-71
2022/06/10 05:47:34;;;;;;;4.03;2.40;;;21.90;52.80;21.00;101724.00;;;;5054011;28;20041;-71
2022/06/10 05:50:36;;;;;;;2.97;2.40;;;21.90;52.80;21.00;101721.00;;;;5050894;28;20037;-71
2022/06/10 05:53:23;;;;;;;5.00;2.60;;;21.90;52.80;21.00;101726.00;;;;5046458;28;20120;-71
2022/06/10 05:56:09;;;;;;;4.00;2.55;;;21.90;52.90;21.00;101728.00;;;;5040462;28;20033;-71
2022/06/10 05:58:55;;;;;;;3.80;2.67;;;21.90;52.90;21.00;101731.00;;;;5057445;28;20411;-71
2022/06/10 06:01:41;;;;;;;4.07;2.83;;;21.90;52.90;21.00;101738.00;;;;5054205;28;20051;-71
2022/06/10 06:04:27;;;;;;;4.43;3.20;;;21.90;53.00;21.00;101727.00;;;;5043938;28;20433;-71
2022/06/10 06:07:20;;;;;;;4.32;2.90;;;21.90;52.90;21.00;101729.00;;;;5037573;28;20049;-71
2022/06/10 06:10:07;;;;;;;4.00;2.38;;;21.90;53.10;21.00;101728.00;;;;5030775;28;20572;-71
2022/06/10 06:12:54;;;;;;;4.57;2.67;;;21.90;53.10;21.00;101735.00;;;;5044792;28;20125;-71
2022/06/10 06:15:40;;;;;;;2.70;2.42;;;21.90;53.10;21.00;101731.00;;;;5044687;28;20056;-71
2022/06/10 06:18:26;;;;;;;3.65;2.30;;;21.90;53.20;21.00;101731.00;;;;5042851;28;20046;-71
2022/06/10 06:21:12;;;;;;;3.22;2.72;;;21.90;53.20;21.00;101733.00;;;;5042648;28;20133;-71
2022/06/10 06:23:59;;;;;;;5.25;2.83;;;21.90;53.10;21.00;101729.00;;;;5045434;28;20032;-71
2022/06/10 06:26:45;;;;;;;6.43;3.40;;;22.00;53.20;21.00;101742.00;;;;5039226;28;20041;-71
2022/06/10 06:29:31;;;;;;;6.63;3.60;;;22.00;53.20;21.00;101742.00;;;;5055144;28;20048;-71
2022/06/10 06:32:17;;;;;;;4.90;3.00;;;22.00;53.10;21.00;101742.00;;;;5046324;28;20045;-71
2022/06/10 06:35:04;;;;;;;7.20;2.78;;;21.90;53.20;21.00;101746.00;;;;5044773;28;20040;-71
2022/06/10 06:37:50;;;;;;;4.20;2.90;;;22.00;53.30;21.00;101747.00;;;;5055772;28;20045;-71
2022/06/10 06:40:36;;;;;;;4.28;2.55;;;22.00;53.20;21.00;101746.00;;;;5041678;28;20132;-71
2022/06/10 06:43:22;;;;;;;5.38;3.13;;;22.00;53.20;21.00;101751.00;;;;5033256;28;20410;-71
2022/06/10 06:46:14;;;;;;;7.25;2.97;;;22.00;53.90;21.00;101752.00;;;;5043985;28;20405;-71
2022/06/10 06:49:01;;;;;;;5.15;2.60;;;22.00;53.00;21.00;101752.00;;;;5056997;28;20508;-71
2022/06/10 06:51:48;;;;;;;3.83;2.70;;;22.00;53.10;21.00;101746.00;;;;5037172;28;20522;-71
2022/06/10 06:54:35;;;;;;;5.22;2.55;;;22.00;53.20;21.00;101753.00;;;;5041941;28;20143;-71
2022/06/10 06:57:22;;;;;;;;;;;22.00;53.20;21.00;101755.00;;;;5049141;28;20095;-71
2022/06/10 07:00:08;;;;;;;9.65;2.60;;;22.10;53.20;21.00;101762.00;;;;5045335;28;19912;-71
2022/06/10 07:02:54;;;;;;;5.28;2.30;;;22.00;52.70;21.00;101759.00;;;;5048381;28;20042;-71
2022/06/10 07:05:42;;;;;;;7.72;2.47;;;22.00;52.70;21.00;101760.00;;;;5055207;28;20041;-71
2022/06/10 07:08:31;;;;;;;6.07;2.53;;;22.00;52.60;21.00;101772.00;;;;5054125;28;20049;-70
2022/06/10 07:11:17;;;;;;;7.32;2.20;;;22.00;52.70;20.90;101768.00;;;;5048598;28;20040;-71
2022/06/10 07:14:03;;;;;;;7.82;2.60;;;22.00;52.70;20.90;101774.00;;;;5047883;28;20037;-71
2022/06/10 07:16:51;;;;;;;10.13;3.58;;;22.00;52.60;21.00;101781.00;;;;5049356;28;20100;-71
2022/06/10 07:19:38;;;;;;;9.55;2.33;;;22.00;52.70;21.00;101783.00;;;;5045385;28;20382;-71
2022/06/10 07:22:24;;;;;;;6.03;2.00;;;22.00;52.80;21.00;101789.00;;;;5057791;28;20040;-71
2022/06/10 07:25:12;;;;;;;5.70;1.90;;;22.00;52.70;21.00;101795.00;;;;5062193;28;20037;-71
2022/06/10 07:27:58;;;;;;;4.95;1.85;;;22.00;53.50;21.00;101787.00;;;;5044852;28;20358;-71
2022/06/10 07:30:44;;;;;;;7.47;2.40;;;22.00;52.90;21.00;101795.00;;;;5046642;28;20037;-71
2022/06/10 07:33:31;;;;;;;4.35;1.90;;;22.00;52.80;21.00;101795.00;;;;5061014;28;20406;-71
2022/06/10 07:36:17;;;;;;;3.65;1.98;;;22.00;52.70;20.90;101802.00;;;;5042498;28;20099;-71
2022/06/10 07:39:03;;;;;;;6.80;2.13;;;21.90;52.70;20.90;101800.00;;;;5051143;28;20098;-71
2022/06/10 07:42:00;;;;;;;6.90;2.00;;;22.00;52.70;20.90;101808.00;;;;5046457;28;20367;-71
2022/06/10 07:44:46;;;;;;;3.90;2.22;;;22.00;52.70;20.90;101811.00;;;;5045371;28;20074;-71
2022/06/10 07:47:32;;;;;;;7.07;1.95;;;22.00;52.80;20.90;101809.00;;;;5048854;28;20200;-71
2022/06/10 07:50:21;;;;;;;7.40;2.20;;;22.00;52.80;20.90;101811.00;;;;5061825;28;20395;-71
2022/06/10 07:53:08;;;;;;;5.90;2.00;;;22.00;52.80;20.90;101812.00;;;;5057299;28;20508;-71
2022/06/10 07:55:54;;;;;;;5.72;1.90;;;21.90;52.80;20.90;101809.00;;;;5055504;28;20067;-71
2022/06/10 07:58:41;;;;;;;6.10;1.98;;;21.90;52.80;20.90;101811.00;;;;5062568;28;20041;-71
2022/06/10 08:01:28;;;;;;;5.30;1.77;;;22.00;52.90;21.00;101810.00;;;;5050308;28;20041;-71
2022/06/10 08:04:15;;;;;;;6.55;2.08;;;22.00;52.90;20.90;101807.00;;;;5060984;28;20072;-71
2022/06/10 08:07:01;;;;;;;5.35;1.80;;;22.00;52.90;20.90;101808.00;;;;5054461;28;20040;-71
2022/06/10 08:09:53;;;;;;;4.10;2.00;;;22.00;52.90;20.90;101810.00;;;;5050671;28;20124;-71
2022/06/10 08:12:39;;;;;;;7.10;2.00;;;22.00;52.90;20.90;101815.00;;;;5045804;28;20103;-71
2022/06/10 08:15:25;;;;;;;5.32;1.73;;;22.00;53.00;20.90;101816.00;;;;5043291;28;20029;-71
2022/06/10 08:18:13;;;;;;;5.32;1.58;;;22.00;53.00;20.90;101816.00;;;;5052955;28;20064;-71
2022/06/10 08:24:20;;;;;;;4.87;1.70;;;22.00;53.20;20.90;101823.00;;;;5009081;28;20075;-71
2022/06/10 08:27:06;;;;;;;7.55;2.08;;;21.90;53.20;20.90;101818.00;;;;5045908;28;20091;-71
2022/06/10 08:29:52;;;;;;;4.78;2.35;;;22.00;53.30;20.90;101823.00;;;;5064118;28;20049;-71
2022/06/10 08:32:38;;;;;;;4.95;1.75;;;21.80;53.20;20.90;101820.00;;;;5050255;28;20067;-70
2022/06/10 08:35:24;;;;;;;6.75;2.58;;;21.90;53.40;20.90;101821.00;;;;5046041;28;20037;-71
2022/06/10 08:38:12;;;;;;;5.30;2.13;;;21.90;53.40;20.90;101819.00;;;;5046556;28;20036;-71
2022/06/10 08:41:14;;;;;;;;;;;21.90;53.50;20.90;101825.00;;;;5045938;28;20117;-71
2022/06/10 08:44:27;;;;;;;3.05;1.92;;;22.00;53.40;20.90;101826.00;;;;5051300;28;19918;-71
2022/06/10 08:47:23;;;;;;;7.18;1.80;;;22.00;53.50;20.90;101820.00;;;;5058010;28;20103;-71
2022/06/10 08:50:54;;;;;;;5.13;1.90;;;21.90;53.50;20.90;101818.00;;;;5050931;28;20052;-71
2022/06/10 08:53:57;;;;;;;3.50;1.50;;;21.90;53.70;20.90;101823.00;;;;5046287;28;20124;-71
2022/06/10 08:56:49;;;;;;;4.20;1.58;;;21.90;53.80;20.90;101823.00;;;;5036225;28;20040;-71
2022/06/10 08:59:41;;;;;;;2.83;1.33;;;21.90;53.90;20.90;101821.00;;;;5052176;28;20292;-71
2022/06/10 09:02:33;;;;;;;4.97;1.92;;;21.90;54.00;20.90;101816.00;;;;5036814;28;20041;-71
2022/06/10 09:05:39;;;;;;;2.20;1.70;;;21.90;54.10;20.90;101817.00;;;;5044082;28;20033;-71
2022/06/10 09:08:30;;;;;;;4.40;1.48;;;21.90;54.20;20.90;101824.00;;;;5043064;28;20490;-71
2022/06/10 09:11:46;;;;;;;5.00;1.75;;;21.90;54.20;20.90;101819.00;;;;5025950;28;20036;-71
2022/06/10 09:14:32;;;;;;;4.57;1.52;;;21.90;54.30;20.90;101816.00;;;;5050576;28;20398;-71
2022/06/10 09:17:50;;;;;;;3.58;1.38;;;22.00;54.30;20.90;101803.00;;;;5030590;28;20527;-71
2022/06/10 09:20:41;;;;;;;3.92;1.40;;;22.00;54.40;21.00;101802.00;;;;5039728;28;20041;-71
2022/06/10 09:23:39;;;;;;;2.72;1.65;;;22.00;54.40;21.00;101796.00;;;;5044787;28;20045;-71
2022/06/10 09:26:34;;;;;;;3.50;1.90;;;22.00;54.50;21.00;101804.00;;;;5040526;28;20529;-71
2022/06/10 09:29:20;;;;;;;5.65;1.83;;;21.90;54.50;21.00;101808.00;;;;5047386;28;20041;-71
2022/06/10 09:32:17;;;;;;;2.92;1.38;;;22.00;54.40;21.00;101794.00;;;;5048957;28;20033;-71
2022/06/10 09:35:21;;;;;;;3.08;1.50;;;22.00;54.60;21.00;101803.00;;;;5041242;28;20053;-71
2022/06/10 09:38:16;;;;;;;3.17;1.52;;;22.00;54.60;21.00;101800.00;;;;5053251;28;20032;-72
2022/06/10 09:41:36;;;;;;;5.05;1.60;;;22.00;54.60;21.00;101802.00;;;;5029796;28;20037;-72
2022/06/10 09:44:47;;;;;;;3.38;1.58;;;22.00;54.70;21.00;101798.00;;;;5045640;28;20738;-71
2022/06/10 09:47:50;;;;;;;4.00;1.80;;;22.00;54.60;21.00;101799.00;;;;5024286;28;20045;-72
2022/06/10 09:50:50;;;;;;;4.93;2.15;;;22.00;54.70;21.00;101793.00;;;;5030704;28;20040;-72
2022/06/10 09:53:54;;;;;;;3.05;1.52;;;22.00;54.70;21.00;101792.00;;;;5042392;28;20056;-71
2022/06/10 09:57:41;;;;;;;3.28;1.60;;;22.00;54.70;21.00;101792.00;;;;5036615;28;20041;-72
2022/06/10 10:00:38;;;;;;;2.92;1.27;;;22.00;54.70;21.00;101787.00;;;;5005857;28;20108;-71
2022/06/10 10:03:42;;;;;;;4.20;1.30;;;22.10;54.70;21.00;101790.00;;;;4999119;28;20061;-71
2022/06/10 10:07:06;;;;;;;4.40;1.60;;;22.00;54.70;21.00;101782.00;;;;5041100;28;20068;-71
2022/06/10 10:10:21;;;;;;;4.05;1.73;;;22.10;54.80;21.00;101781.00;;;;5028292;28;20045;-70
2022/06/10 10:13:44;;;;;;;3.70;1.70;;;22.10;54.90;21.00;101787.00;;;;5051996;28;20509;-71
2022/06/10 10:17:11;;;;;;;3.80;1.92;;;22.10;54.80;21.00;101787.00;;;;5042336;28;20052;-71
2022/06/10 10:20:26;;;;;;;6.20;1.65;;;22.10;54.90;21.00;101784.00;;;;5048176;28;20677;-71
2022/06/10 10:23:46;;;;;;;3.67;1.63;;;22.10;54.90;21.00;101774.00;;;;5033006;28;20043;-71
2022/06/10 10:26:37;;;;;;;4.90;1.90;;;22.10;54.90;21.00;101781.00;;;;5044963;28;20268;-71
2022/06/10 10:29:25;;;;;;;3.08;2.05;;;22.10;54.90;21.00;101772.00;;;;5045424;28;20129;-71
2022/06/10 10:32:13;;;;;;;1.70;1.10;;;22.10;55.00;21.00;101776.00;;;;5038289;28;20033;-71
2022/06/10 10:35:05;;;;;;;5.20;2.00;;;22.00;54.90;21.00;101779.00;;;;5042149;28;20127;-71
2022/06/10 10:38:06;;;;;;;4.35;1.77;;;22.10;55.00;21.00;101775.00;;;;5031372;28;20036;-71
2022/06/10 10:40:52;;;;;;;9.88;2.05;;;22.30;55.10;21.00;101771.00;;;;5027569;28;20049;-71
2022/06/10 10:43:38;;;;;;;4.88;1.95;;;22.10;55.00;21.10;101780.00;;;;5030352;28;20255;-71
2022/06/10 10:46:39;;;;;;;7.55;2.17;;;22.10;55.00;21.00;101778.00;;;;5036529;28;20402;-71
2022/06/10 10:49:31;;;;;;;6.25;2.85;;;22.10;55.00;21.00;101774.00;;;;5039083;28;20033;-71
2022/06/10 10:52:27;;;;;;;6.95;2.33;;;22.10;55.00;21.10;101776.00;;;;5038363;28;20124;-71
2022/06/10 10:55:13;;;;;;;5.38;2.47;;;22.10;55.00;21.10;101778.00;;;;5041557;28;20041;-71
2022/06/10 10:58:18;;;;;;;9.10;2.60;;;22.20;54.90;21.10;101773.00;;;;5043415;28;20044;-71
2022/06/10 11:01:08;;;;;;;7.40;2.63;;;22.20;55.00;21.10;101771.00;;;;5026615;28;20043;-71
2022/06/10 11:03:54;;;;;;;6.72;2.28;;;22.20;55.00;21.10;101767.00;;;;5049060;28;20120;-72
2022/06/10 11:06:40;;;;;;;6.20;2.28;;;22.20;55.00;21.10;101769.00;;;;5043806;28;20041;-71
2022/06/10 11:09:26;;;;;;;4.53;2.38;;;22.20;55.10;21.10;101765.00;;;;5056935;28;20037;-71
2022/06/10 11:12:16;;;;;;;6.82;2.10;;;22.20;55.10;21.10;101769.00;;;;5050472;28;20029;-71
2022/06/10 11:15:12;;;;;;;6.40;1.92;;;22.20;55.00;21.10;101760.00;;;;5041952;28;20033;-71
2022/06/10 11:17:58;;;;;;;5.22;2.03;;;22.20;55.00;21.10;101753.00;;;;5043186;28;20049;-71
2022/06/10 11:20:44;;;;;;;4.63;1.35;;;22.20;54.90;21.10;101759.00;;;;5047193;28;20510;-71
2022/06/10 11:23:30;;;;;;;4.57;1.17;;;22.20;54.90;21.10;101752.00;;;;5041166;28;20044;-71
2022/06/10 11:26:18;;;;;;;6.97;1.55;;;22.20;54.80;21.10;101750.00;;;;5039596;28;20060;-71
2022/06/10 11:29:07;;;;;;;6.35;1.60;;;22.20;54.80;21.10;101747.00;;;;5044031;28;20047;-71
2022/06/10 11:32:00;;;;;;;7.20;1.30;;;22.30;54.90;21.20;101749.00;;;;5049374;28;20072;-71
2022/06/10 11:34:46;;;;;;;2.28;1.10;;;22.20;54.90;21.20;101750.00;;;;5053140;28;20095;-71
2022/06/10 11:37:34;;;;;;;5.30;1.20;;;22.20;54.80;21.20;101746.00;;;;5041189;28;20037;-71
2022/06/10 11:40:29;;;;;;;2.53;1.17;;;22.20;54.80;21.20;101746.00;;;;5039429;28;20040;-71
2022/06/10 11:43:19;;;;;;;3.90;0.95;;;22.30;54.90;21.20;101748.00;;;;5031059;28;20047;-71
2022/06/10 11:46:17;;;;;;;7.43;1.50;;;22.30;54.90;21.20;101740.00;;;;5027370;28;20079;-71
2022/06/10 11:49:29;;;;;;;6.78;1.52;;;22.30;54.90;21.20;101739.00;;;;5043420;28;20142;-71
2022/06/10 11:52:33;;;;;;;5.82;1.20;;;22.30;54.90;21.20;101739.00;;;;5062425;28;20037;-72
2022/06/10 11:55:32;;;;;;;4.03;1.13;;;22.30;54.90;21.20;101739.00;;;;5043789;28;20076;-71
2022/06/10 12:01:42;;;;;;;4.78;1.50;;;22.40;54.90;21.20;101743.00;;;;5029863;28;20394;-71
2022/06/10 12:04:40;;;;;;;3.92;1.60;;;22.30;54.90;21.20;101734.00;;;;5046942;28;20037;-71
2022/06/10 12:07:27;;;;;;;3.92;1.50;;;22.30;55.00;21.20;101730.00;;;;5047696;28;20049;-71
2022/06/10 12:10:18;;;;;;;4.05;1.73;;;22.30;54.90;21.20;101727.00;;;;5043812;28;20033;-71
2022/06/10 12:13:04;;;;;;;3.90;1.38;;;22.30;55.00;21.20;101733.00;;;;5045314;28;20063;-71
2022/06/10 12:15:55;;;;;;;3.60;1.38;;;22.40;55.00;21.20;101730.00;;;;5043950;28;20041;-71
2022/06/10 12:18:45;;;;;;;6.60;1.80;;;22.30;55.00;21.20;101719.00;;;;5061590;28;20115;-71
2022/06/10 12:21:31;;;;;;;5.70;1.73;;;22.30;54.90;21.30;101728.00;;;;5045466;28;20045;-71
2022/06/10 12:24:18;;;;;;;6.18;2.03;;;22.40;54.90;21.30;101726.00;;;;5050357;28;20129;-71
2022/06/10 12:27:22;;;;;;;7.43;1.33;;;22.40;54.90;21.30;101717.00;;;;5032377;28;20070;-71
2022/06/10 12:30:53;;;;;;;5.20;1.13;;;22.40;54.90;21.30;101722.00;;;;5045959;28;20275;-71
2022/06/10 12:34:12;;;;;;;4.00;1.40;;;22.40;54.90;21.20;101715.00;;;;5048153;28;20033;-71
2022/06/10 12:37:11;;;;;;;5.30;1.40;;;22.40;54.90;21.30;101714.00;;;;5054709;28;20039;-71
2022/06/10 12:40:06;;;;;;;4.53;1.42;;;22.40;55.00;21.30;101714.00;;;;5045453;28;20534;-71
2022/06/10 12:43:00;;;;;;;4.80;1.48;;;22.40;54.90;21.30;101709.00;;;;5058512;28;20041;-71
2022/06/10 12:46:01;;;;;;;3.85;1.35;;;22.40;54.90;21.30;101715.00;;;;5038934;28;20713;-71
2022/06/10 12:48:47;;;;;;;3.55;1.80;;;22.40;55.00;21.30;101712.00;;;;5041884;28;20131;-71
2022/06/10 12:51:40;;;;;;;4.75;1.80;;;22.40;54.90;21.30;101698.00;;;;5044357;28;20450;-71
2022/06/10 12:54:54;;;;;;;4.63;1.30;;;22.40;55.00;21.30;101703.00;;;;5043193;28;20039;-71
2022/06/10 12:57:44;;;;;;;8.65;1.92;;;22.40;55.00;21.30;101703.00;;;;5037211;28;20080;-71